Time;durP1;ratioP1;P1;durP2;ratioP2;P2;SDS_P1;SDS_P2;PMS_P1;PMS_P2;Temp;Humidity;BMP_temperature;BMP_pressure;BME280_temperature;BME280_humidity;BME280_pressure;Samples;Min_cycle;Max_cycle;Signal;HPM_P1;HPM_P2
2022/06/30 00:00:53;;;;;;;3.67;2.73;;;;;;;;;;5072131;28;20404;-84
2022/06/30 00:03:19;;;;;;;5.07;3.22;;;;;;;;;;5072822;28;20395;-85
2022/06/30 00:05:45;;;;;;;3.28;2.50;;;;;;;;;;5072586;28;20733;-85
2022/06/30 00:08:11;;;;;;;3.83;2.90;;;;;;;;;;5072650;28;20376;-85
2022/06/30 00:10:37;;;;;;;3.72;3.17;;;;;;;;;;5072438;28;20430;-85
2022/06/30 00:13:03;;;;;;;3.50;2.90;;;;;;;;;;5072612;28;20375;-85
2022/06/30 00:15:29;;;;;;;3.08;2.88;;;;;;;;;;5072366;28;20788;-84
2022/06/30 00:17:55;;;;;;;3.53;3.15;;;;;;;;;;5072688;28;20749;-84
2022/06/30 00:20:21;;;;;;;3.03;2.83;;;;;;;;;;5071989;28;20411;-84
2022/06/30 00:22:47;;;;;;;5.60;3.10;;;;;;;;;;5072318;28;20463;-84
2022/06/30 00:25:13;;;;;;;4.43;3.10;;;;;;;;;;5072527;28;20380;-85
2022/06/30 00:27:40;;;;;;;3.40;3.10;;;;;;;;;;5072287;28;20372;-84
2022/06/30 00:30:06;;;;;;;3.10;2.80;;;;;;;;;;5072219;28;20390;-85
2022/06/30 00:32:32;;;;;;;3.13;2.75;;;;;;;;;;5072455;28;20462;-85
2022/06/30 00:34:58;;;;;;;3.17;2.63;;;;;;;;;;5072206;28;20525;-84
2022/06/30 00:37:24;;;;;;;3.88;2.70;;;;;;;;;;5072328;28;20387;-85
2022/06/30 00:39:50;;;;;;;5.13;2.63;;;;;;;;;;5071977;28;20400;-85
2022/06/30 00:42:16;;;;;;;3.92;2.95;;;;;;;;;;5072365;28;20462;-85
2022/06/30 00:44:42;;;;;;;2.72;2.53;;;;;;;;;;5072500;28;20473;-85
2022/06/30 00:47:10;;;;;;;3.17;2.87;;;;;;;;;;5072208;28;20555;-85
2022/06/30 00:49:37;;;;;;;4.15;2.88;;;;;;;;;;5072076;28;20466;-84
2022/06/30 00:52:03;;;;;;;3.10;2.85;;;;;;;;;;5071999;28;20458;-84
2022/06/30 00:54:30;;;;;;;3.00;2.72;;;;;;;;;;5072113;28;20372;-84
2022/06/30 00:56:58;;;;;;;3.30;2.72;;;;;;;;;;5072065;28;20385;-84
2022/06/30 00:59:24;;;;;;;5.18;3.00;;;;;;;;;;5072087;28;20408;-84
2022/06/30 01:01:51;;;;;;;3.25;2.70;;;;;;;;;;5071980;28;20430;-85
2022/06/30 01:04:17;;;;;;;3.55;2.83;;;;;;;;;;5072061;28;20379;-85
2022/06/30 01:06:44;;;;;;;3.85;2.83;;;;;;;;;;5072018;28;20379;-84
2022/06/30 01:09:10;;;;;;;3.08;2.78;;;;;;;;;;5071908;28;20463;-84
2022/06/30 01:14:21;;;;;;;3.45;2.70;;;;;;;;;;5072054;28;20890;-84
2022/06/30 01:16:47;;;;;;;3.40;3.10;;;;;;;;;;5072043;28;20738;-85
2022/06/30 01:19:15;;;;;;;4.65;3.17;;;;;;;;;;5071225;28;20862;-84
2022/06/30 01:21:41;;;;;;;3.17;2.90;;;;;;;;;;5071743;28;20781;-84
2022/06/30 01:24:07;;;;;;;4.63;3.75;;;;;;;;;;5071749;28;20379;-85
2022/06/30 01:26:33;;;;;;;3.55;3.05;;;;;;;;;;5071787;28;20383;-84
2022/06/30 01:28:59;;;;;;;3.40;3.10;;;;;;;;;;5071714;28;20865;-85
2022/06/30 01:31:25;;;;;;;3.53;3.20;;;;;;;;;;5071742;28;20399;-84
2022/06/30 01:33:51;;;;;;;4.93;3.15;;;;;;;;;;5072447;28;20757;-84
2022/06/30 01:36:17;;;;;;;3.30;3.00;;;;;;;;;;5074127;28;20375;-85
2022/06/30 01:38:43;;;;;;;3.50;3.20;;;;;;;;;;5069114;28;20387;-85
2022/06/30 01:41:09;;;;;;;4.00;3.10;;;;;;;;;;5072516;28;20407;-84
2022/06/30 01:43:35;;;;;;;5.15;3.25;;;;;;;;;;5076233;28;21072;-85
2022/06/30 01:46:02;;;;;;;3.30;3.00;;;;;;;;;;5074302;28;20384;-84
2022/06/30 01:48:28;;;;;;;3.83;3.30;;;;;;;;;;5075215;28;20380;-84
2022/06/30 01:50:54;;;;;;;3.42;3.00;;;;;;;;;;5075182;28;20463;-82
2022/06/30 01:53:20;;;;;;;4.60;3.17;;;;;;;;;;5074324;28;20517;-85
2022/06/30 01:55:47;;;;;;;3.80;3.30;;;;;;;;;;5075541;28;20391;-85
2022/06/30 01:58:13;;;;;;;4.80;3.10;;;;;;;;;;5090581;28;20374;-85
2022/06/30 02:00:39;;;;;;;3.17;2.85;;;;;;;;;;5056424;28;20778;-84
2022/06/30 02:03:05;;;;;;;4.07;2.85;;;;;;;;;;5055154;28;20374;-84
2022/06/30 02:05:31;;;;;;;3.95;2.88;;;;;;;;;;5054987;28;20456;-84
2022/06/30 02:07:57;;;;;;;4.17;3.10;;;;;;;;;;5055002;28;20547;-84
2022/06/30 02:10:24;;;;;;;3.92;3.00;;;;;;;;;;5061006;28;20741;-84
2022/06/30 02:12:51;;;;;;;4.60;2.70;;;;;;;;;;5055257;28;20378;-84
2022/06/30 02:15:28;;;;;;;3.20;2.80;;;;;;;;;;5063016;28;20379;-84
2022/06/30 02:17:54;;;;;;;3.33;3.03;;;;;;;;;;5075003;28;20372;-84
2022/06/30 02:20:23;;;;;;;3.40;3.10;;;;;;;;;;5074461;28;20399;-84
2022/06/30 02:22:50;;;;;;;3.08;2.78;;;;;;;;;;5074746;28;20376;-84
2022/06/30 02:25:16;;;;;;;3.75;2.83;;;;;;;;;;5074929;28;20372;-84
2022/06/30 02:27:42;;;;;;;3.60;2.83;;;;;;;;;;5074551;28;20372;-84
2022/06/30 02:30:08;;;;;;;4.73;3.03;;;;;;;;;;5074534;28;20383;-84
2022/06/30 02:32:35;;;;;;;5.90;3.00;;;;;;;;;;5074547;28;20440;-84
2022/06/30 02:35:01;;;;;;;2.80;2.60;;;;;;;;;;5074706;28;20860;-85
2022/06/30 02:37:27;;;;;;;4.95;3.00;;;;;;;;;;5074420;28;20376;-84
2022/06/30 02:39:53;;;;;;;3.50;2.93;;;;;;;;;;5074171;28;20403;-84
2022/06/30 02:42:19;;;;;;;3.72;2.83;;;;;;;;;;5074312;28;20384;-84
2022/06/30 02:44:45;;;;;;;3.25;2.95;;;;;;;;;;5074188;28;20849;-84
2022/06/30 02:47:11;;;;;;;4.30;2.80;;;;;;;;;;5074335;28;20382;-84
2022/06/30 02:49:39;;;;;;;2.67;2.47;;;;;;;;;;5074111;28;20380;-84
2022/06/30 02:52:05;;;;;;;2.95;2.75;;;;;;;;;;5074088;28;20388;-84
2022/06/30 02:54:31;;;;;;;2.80;2.60;;;;;;;;;;5074146;28;20395;-84
2022/06/30 02:56:57;;;;;;;3.40;3.10;;;;;;;;;;5073941;28;20453;-84
2022/06/30 02:59:23;;;;;;;3.35;2.85;;;;;;;;;;5074541;28;20411;-84
2022/06/30 03:01:49;;;;;;;4.37;2.90;;;;;;;;;;5073907;28;20780;-84
2022/06/30 03:04:15;;;;;;;3.45;3.15;;;;;;;;;;5073857;28;20399;-84
2022/06/30 03:06:41;;;;;;;4.50;2.70;;;;;;;;;;5073794;28;20375;-84
2022/06/30 03:09:08;;;;;;;3.28;3.00;;;;;;;;;;5073443;28;20390;-84
2022/06/30 03:11:34;;;;;;;3.60;3.00;;;;;;;;;;5073600;28;20400;-84
2022/06/30 03:14:00;;;;;;;3.95;3.20;;;;;;;;;;5073628;28;20391;-84
2022/06/30 03:16:26;;;;;;;3.35;2.85;;;;;;;;;;5073591;28;20407;-84
2022/06/30 03:18:52;;;;;;;3.30;3.03;;;;;;;;;;5073612;28;20915;-84
2022/06/30 03:21:20;;;;;;;3.40;3.10;;;;;;;;;;5072625;28;20453;-84
2022/06/30 03:23:46;;;;;;;4.97;3.13;;;;;;;;;;5072576;28;20848;-84
2022/06/30 03:26:12;;;;;;;3.38;3.08;;;;;;;;;;5072506;28;20379;-84
2022/06/30 03:28:38;;;;;;;4.65;3.25;;;;;;;;;;5072477;28;20473;-84
2022/06/30 03:31:04;;;;;;;3.35;3.08;;;;;;;;;;5072537;28;20488;-84
2022/06/30 03:33:31;;;;;;;4.03;3.20;;;;;;;;;;5072321;28;20865;-84
2022/06/30 03:35:57;;;;;;;4.03;3.17;;;;;;;;;;5072406;28;20437;-84
2022/06/30 03:38:22;;;;;;;5.43;3.30;;;;;;;;;;5074526;28;20385;-84
2022/06/30 03:40:49;;;;;;;3.25;3.00;;;;;;;;;;5072578;28;20412;-85
2022/06/30 03:43:16;;;;;;;4.22;3.55;;;;;;;;;;5086646;28;20374;-84
2022/06/30 03:45:43;;;;;;;4.85;3.53;;;;;;;;;;5065534;28;20466;-85
2022/06/30 03:48:09;;;;;;;3.50;3.13;;;;;;;;;;5070106;28;20741;-84
2022/06/30 03:50:35;;;;;;;3.72;3.40;;;;;;;;;;5061253;28;20472;-85
2022/06/30 03:53:01;;;;;;;3.90;3.47;;;;;;;;;;5064175;28;20371;-84
2022/06/30 03:55:28;;;;;;;3.60;3.30;;;;;;;;;;5070915;28;20895;-85
2022/06/30 03:57:54;;;;;;;4.43;3.90;;;;;;;;;;5071332;28;20411;-84
2022/06/30 04:00:21;;;;;;;4.60;3.67;;;;;;;;;;5070143;28;20432;-85
2022/06/30 04:02:47;;;;;;;3.57;3.27;;;;;;;;;;5071750;28;20864;-85
2022/06/30 04:05:13;;;;;;;3.75;3.45;;;;;;;;;;5073735;28;20375;-85
2022/06/30 04:07:40;;;;;;;3.63;3.33;;;;;;;;;;5071882;28;20375;-85
2022/06/30 04:10:06;;;;;;;4.18;3.63;;;;;;;;;;5071438;28;20411;-84
2022/06/30 04:12:32;;;;;;;4.20;3.80;;;;;;;;;;5071707;28;20386;-85
2022/06/30 04:14:58;;;;;;;5.72;3.80;;;;;;;;;;5071672;28;20387;-85
2022/06/30 04:17:24;;;;;;;4.43;3.50;;;;;;;;;;5071673;28;20865;-85
2022/06/30 04:19:50;;;;;;;3.80;3.40;;;;;;;;;;5007754;28;1802156;-85
2022/06/30 04:22:16;;;;;;;4.10;3.80;;;;;;;;;;5072550;28;20383;-85
2022/06/30 04:24:42;;;;;;;3.90;3.47;;;;;;;;;;5072350;28;20391;-85
2022/06/30 04:27:08;;;;;;;4.70;3.40;;;;;;;;;;5072694;28;20466;-85
2022/06/30 04:29:34;;;;;;;3.70;3.40;;;;;;;;;;5072121;28;20474;-84
2022/06/30 04:34:45;;;;;;;3.78;3.47;;;;;;;;;;5073536;28;20518;-84
2022/06/30 04:37:11;;;;;;;4.45;3.53;;;;;;;;;;5073052;28;20388;-84
2022/06/30 04:39:37;;;;;;;4.27;3.63;;;;;;;;;;5072058;28;20403;-84
2022/06/30 04:42:03;;;;;;;4.20;3.78;;;;;;;;;;5072208;28;20791;-85
2022/06/30 04:44:29;;;;;;;4.35;3.70;;;;;;;;;;5074560;28;20383;-85
2022/06/30 04:46:55;;;;;;;4.18;3.15;;;;;;;;;;5073655;28;20782;-85
2022/06/30 04:49:21;;;;;;;3.23;2.93;;;;;;;;;;5072027;28;20396;-85
2022/06/30 04:51:47;;;;;;;3.33;3.00;;;;;;;;;;5072051;28;20367;-84
2022/06/30 04:54:13;;;;;;;3.38;3.10;;;;;;;;;;5072108;28;20859;-85
2022/06/30 04:56:42;;;;;;;3.92;3.63;;;;;;;;;;5071827;28;20379;-84
2022/06/30 04:59:08;;;;;;;4.00;3.70;;;;;;;;;;5071952;28;20890;-84
2022/06/30 05:01:34;;;;;;;3.30;3.00;;;;;;;;;;5071573;28;20467;-84
2022/06/30 05:04:00;;;;;;;3.80;3.05;;;;;;;;;;5071555;28;20372;-84
2022/06/30 05:06:26;;;;;;;4.20;3.40;;;;;;;;;;5072030;28;20787;-84
2022/06/30 05:08:52;;;;;;;3.75;3.45;;;;;;;;;;5074788;28;20436;-84
2022/06/30 05:11:18;;;;;;;3.83;3.00;;;;;;;;;;5075898;28;20380;-84
2022/06/30 05:13:44;;;;;;;4.57;3.28;;;;;;;;;;5075932;28;20845;-84
2022/06/30 05:16:10;;;;;;;3.42;3.10;;;;;;;;;;5076145;28;20383;-84
2022/06/30 05:18:36;;;;;;;3.47;3.05;;;;;;;;;;5075886;28;20946;-84
2022/06/30 05:21:02;;;;;;;3.90;3.25;;;;;;;;;;5075463;28;20482;-84
2022/06/30 05:23:28;;;;;;;3.67;3.20;;;;;;;;;;5075754;28;20383;-84
2022/06/30 05:28:39;;;;;;;4.68;3.05;;;;;;;;;;5075643;28;20717;-84
2022/06/30 05:31:05;;;;;;;6.68;3.53;;;;;;;;;;5091180;28;20370;-84
2022/06/30 05:33:31;;;;;;;3.30;3.00;;;;;;;;;;5054447;28;20455;-84
2022/06/30 05:35:58;;;;;;;5.47;3.00;;;;;;;;;;5055748;28;20385;-84
2022/06/30 05:38:24;;;;;;;3.78;3.25;;;;;;;;;;5055400;28;20381;-83
2022/06/30 05:40:50;;;;;;;4.88;2.90;;;;;;;;;;5055358;28;20466;-84
2022/06/30 05:43:17;;;;;;;4.10;3.10;;;;;;;;;;5054077;28;20751;-84
2022/06/30 05:45:50;;;;;;;3.50;2.92;;;;;;;;;;5055411;28;20374;-84
2022/06/30 05:48:16;;;;;;;6.65;3.13;;;;;;;;;;5055325;28;20382;-84
2022/06/30 05:50:42;;;;;;;3.45;3.03;;;;;;;;;;5072430;28;20418;-84
2022/06/30 05:53:08;;;;;;;4.60;3.08;;;;;;;;;;5075058;28;20398;-84
2022/06/30 05:55:34;;;;;;;3.85;3.05;;;;;;;;;;5072921;28;20473;-84
2022/06/30 05:58:01;;;;;;;4.20;2.90;;;;;;;;;;5074742;28;20391;-84
2022/06/30 06:00:28;;;;;;;3.40;3.07;;;;;;;;;;5073609;28;20408;-84
2022/06/30 06:02:54;;;;;;;3.28;2.97;;;;;;;;;;5065180;28;20374;-84
2022/06/30 06:05:21;;;;;;;3.35;3.05;;;;;;;;;;5069613;28;20418;-84
2022/06/30 06:07:47;;;;;;;3.57;3.10;;;;;;;;;;5074957;28;20383;-84
2022/06/30 06:10:13;;;;;;;5.18;3.17;;;;;;;;;;5074828;28;20441;-84
2022/06/30 06:12:40;;;;;;;3.33;3.03;;;;;;;;;;5076988;28;20424;-84
2022/06/30 06:15:06;;;;;;;4.10;3.33;;;;;;;;;;5073708;28;20483;-84
2022/06/30 06:17:39;;;;;;;3.40;3.10;;;;;;;;;;5072392;28;20475;-84
2022/06/30 06:20:05;;;;;;;3.72;3.33;;;;;;;;;;5073122;28;20464;-84
2022/06/30 06:22:32;;;;;;;5.65;3.25;;;;;;;;;;5073428;28;20407;-84
2022/06/30 06:24:58;;;;;;;4.03;3.13;;;;;;;;;;5073519;28;20410;-84
2022/06/30 06:27:24;;;;;;;4.70;3.47;;;;;;;;;;5073754;28;20932;-84
2022/06/30 06:29:50;;;;;;;4.32;3.85;;;;;;;;;;5073661;28;20431;-84
2022/06/30 06:32:16;;;;;;;5.45;4.05;;;;;;;;;;5074532;28;20744;-85
2022/06/30 06:34:42;;;;;;;7.00;4.20;;;;;;;;;;5074364;28;20774;-85
2022/06/30 06:37:08;;;;;;;4.40;4.00;;;;;;;;;;5074400;28;20376;-85
2022/06/30 06:39:34;;;;;;;5.13;3.80;;;;;;;;;;5074181;28;20457;-85
2022/06/30 06:42:00;;;;;;;4.43;4.03;;;;;;;;;;5074258;28;20745;-85
2022/06/30 06:44:26;;;;;;;5.72;4.55;;;;;;;;;;5073672;28;20386;-85
2022/06/30 06:46:52;;;;;;;4.55;4.15;;;;;;;;;;5073745;28;20379;-85
2022/06/30 06:49:18;;;;;;;4.75;4.28;;;;;;;;;;5074116;28;20372;-85
2022/06/30 06:51:44;;;;;;;6.10;4.35;;;;;;;;;;5073997;28;20849;-85
2022/06/30 06:54:10;;;;;;;4.40;4.00;;;;;;;;;;5072744;28;20376;-85
2022/06/30 06:56:36;;;;;;;4.38;3.97;;;;;;;;;;5063959;28;20457;-85
2022/06/30 06:59:02;;;;;;;4.80;4.40;;;;;;;;;;5072971;28;20384;-86
2022/06/30 07:01:28;;;;;;;4.43;4.03;;;;;;;;;;5068713;28;20891;-85
2022/06/30 07:03:54;;;;;;;5.05;4.55;;;;;;;;;;5073534;28;20402;-85
2022/06/30 07:06:21;;;;;;;5.00;4.10;;;;;;;;;;5073530;28;20388;-84
2022/06/30 07:08:47;;;;;;;5.30;4.40;;;;;;;;;;5073710;28;20380;-84
2022/06/30 07:11:13;;;;;;;4.88;4.32;;;;;;;;;;5073125;28;20380;-85
2022/06/30 07:13:39;;;;;;;4.68;4.15;;;;;;;;;;5072477;28;20398;-85
2022/06/30 07:16:05;;;;;;;4.53;3.97;;;;;;;;;;5073017;28;20387;-85
2022/06/30 07:18:31;;;;;;;6.22;4.57;;;;;;;;;;5073300;28;20395;-85
2022/06/30 07:20:57;;;;;;;4.82;4.35;;;;;;;;;;5073149;28;20408;-85
2022/06/30 07:23:23;;;;;;;4.97;4.03;;;;;;;;;;5073404;28;20876;-85
2022/06/30 07:25:52;;;;;;;5.20;3.90;;;;;;;;;;5073077;28;20384;-85
2022/06/30 07:28:18;;;;;;;6.25;4.15;;;;;;;;;;5072966;28;20445;-85
2022/06/30 07:30:44;;;;;;;4.37;3.90;;;;;;;;;;5072490;28;20380;-85
2022/06/30 07:33:10;;;;;;;3.80;3.50;;;;;;;;;;5073599;28;20387;-86
2022/06/30 07:35:36;;;;;;;5.10;3.67;;;;;;;;;;5073209;28;20419;-85
2022/06/30 07:38:02;;;;;;;3.90;3.50;;;;;;;;;;5073210;28;20437;-85
2022/06/30 07:40:28;;;;;;;4.60;3.85;;;;;;;;;;5072238;28;20511;-85
2022/06/30 07:42:55;;;;;;;5.07;3.90;;;;;;;;;;5073104;28;20408;-85
2022/06/30 07:45:22;;;;;;;4.50;3.50;;;;;;;;;;5070218;28;20879;-83
2022/06/30 07:47:49;;;;;;;4.32;3.63;;;;;;;;;;5072133;28;20442;-83
2022/06/30 07:50:17;;;;;;;4.95;4.13;;;;;;;;;;5072024;28;20408;-83
2022/06/30 07:52:43;;;;;;;3.85;3.45;;;;;;;;;;5074491;28;20384;-83
2022/06/30 07:55:10;;;;;;;5.13;3.65;;;;;;;;;;5072379;28;20386;-83
2022/06/30 07:57:42;;;;;;;3.65;3.35;;;;;;;;;;5072134;28;20395;-83
2022/06/30 08:00:08;;;;;;;3.73;3.30;;;;;;;;;;5072608;28;20486;-83
2022/06/30 08:02:34;;;;;;;3.55;3.25;;;;;;;;;;5072738;28;20853;-83
2022/06/30 08:05:00;;;;;;;3.65;3.17;;;;;;;;;;5072721;28;20390;-83
2022/06/30 08:07:26;;;;;;;3.75;3.13;;;;;;;;;;5072651;28;20380;-83
2022/06/30 08:09:52;;;;;;;4.13;3.10;;;;;;;;;;5073857;28;20376;-83
2022/06/30 08:12:18;;;;;;;3.97;3.13;;;;;;;;;;5072561;28;20384;-82
2022/06/30 08:14:44;;;;;;;4.95;3.15;;;;;;;;;;5072550;28;20500;-83
2022/06/30 08:17:10;;;;;;;4.33;3.47;;;;;;;;;;5072508;28;20895;-83
2022/06/30 08:19:36;;;;;;;4.87;3.20;;;;;;;;;;5072182;28;20479;-83
2022/06/30 08:22:02;;;;;;;5.95;3.17;;;;;;;;;;5072637;28;20445;-83
2022/06/30 08:24:28;;;;;;;5.28;2.95;;;;;;;;;;5072393;28;20372;-83
2022/06/30 08:26:54;;;;;;;4.72;2.95;;;;;;;;;;5072460;28;20876;-83
2022/06/30 08:29:20;;;;;;;4.80;3.08;;;;;;;;;;5072225;28;20375;-83
2022/06/30 08:31:46;;;;;;;4.35;3.50;;;;;;;;;;5072310;28;20398;-83
2022/06/30 08:34:12;;;;;;;3.80;2.70;;;;;;;;;;5072469;28;20415;-83
2022/06/30 08:36:38;;;;;;;4.25;3.00;;;;;;;;;;5072198;28;20407;-83
2022/06/30 08:42:02;;;;;;;3.50;2.92;;;;;;;;;;5070970;28;20749;-83
2022/06/30 08:42:03;;;;;;;8.02;2.90;;;;;;;;;;5072012;28;20744;-83
2022/06/30 08:44:32;;;;;;;5.40;3.20;;;;;;;;;;5072215;28;20387;-83
2022/06/30 08:46:59;;;;;;;3.72;2.90;;;;;;;;;;5072455;28;20382;-83
2022/06/30 08:49:26;;;;;;;4.25;2.83;;;;;;;;;;5072061;28;20372;-83
2022/06/30 08:51:53;;;;;;;3.47;2.88;;;;;;;;;;5072093;28;20474;-83
2022/06/30 08:54:20;;;;;;;5.57;2.47;;;;;;;;;;5072374;28;20389;-83
2022/06/30 08:56:46;;;;;;;4.15;2.50;;;;;;;;;;5070880;28;20390;-83
2022/06/30 08:59:13;;;;;;;3.13;2.50;;;;;;;;;;5071237;28;20386;-83
2022/06/30 09:01:40;;;;;;;3.85;2.47;;;;;;;;;;5055081;28;20959;-83
2022/06/30 09:04:07;;;;;;;3.92;2.55;;;;;;;;;;5051915;28;20417;-83
2022/06/30 09:06:33;;;;;;;3.20;2.42;;;;;;;;;;5051975;28;20855;-83
2022/06/30 09:08:59;;;;;;;3.85;2.65;;;;;;;;;;5051911;28;20387;-83
2022/06/30 09:11:45;;;;;;;3.70;2.47;;;;;;;;;;5051911;28;20468;-83
2022/06/30 09:14:11;;;;;;;3.35;2.33;;;;;;;;;;5051836;28;20377;-84
2022/06/30 09:16:51;;;;;;;3.20;2.33;;;;;;;;;;5071016;28;20441;-83
2022/06/30 09:19:17;;;;;;;3.78;2.35;;;;;;;;;;5071682;28;20398;-84
2022/06/30 09:21:43;;;;;;;4.25;2.60;;;;;;;;;;5071929;28;20392;-83
2022/06/30 09:24:21;;;;;;;3.17;2.55;;;;;;;;;;5071745;28;20395;-83
2022/06/30 09:26:47;;;;;;;5.43;2.33;;;;;;;;;;5072013;28;20876;-83
2022/06/30 09:29:13;;;;;;;3.47;2.38;;;;;;;;;;5071747;28;20388;-83
2022/06/30 09:31:42;;;;;;;2.67;2.37;;;;;;;;;;5071633;28;20467;-83
2022/06/30 09:34:19;;;;;;;4.07;2.20;;;;;;;;;;5071762;28;20383;-83
2022/06/30 09:36:46;;;;;;;4.00;2.80;;;;;;;;;;5074113;28;20376;-84
2022/06/30 09:39:13;;;;;;;5.82;2.78;;;;;;;;;;5071964;28;20426;-84
2022/06/30 09:41:41;;;;;;;5.18;2.67;;;;;;;;;;5071443;28;20477;-84
2022/06/30 09:44:08;;;;;;;7.00;2.50;;;;;;;;;;5074117;28;20494;-84
2022/06/30 09:46:37;;;;;;;5.38;2.22;;;;;;;;;;5070172;28;20749;-83
2022/06/30 09:49:04;;;;;;;3.53;2.28;;;;;;;;;;5071598;28;20376;-84
2022/06/30 09:51:31;;;;;;;4.28;2.38;;;;;;;;;;5071429;28;20380;-83
2022/06/30 09:54:08;;;;;;;3.63;2.20;;;;;;;;;;5072747;28;20462;-83
2022/06/30 09:56:34;;;;;;;3.83;2.17;;;;;;;;;;5075119;28;20384;-84
2022/06/30 09:59:00;;;;;;;4.32;2.30;;;;;;;;;;5075114;28;20404;-84
2022/06/30 10:01:26;;;;;;;4.40;2.30;;;;;;;;;;5074997;28;20404;-84
2022/06/30 10:04:00;;;;;;;6.55;2.30;;;;;;;;;;5074987;28;20372;-84
2022/06/30 10:06:26;;;;;;;3.17;2.15;;;;;;;;;;5077483;28;20382;-84
2022/06/30 10:08:54;;;;;;;4.60;2.13;;;;;;;;;;5075146;28;20490;-84
2022/06/30 10:11:20;;;;;;;2.58;2.13;;;;;;;;;;5074888;28;20379;-84
2022/06/30 10:13:48;;;;;;;4.47;2.55;;;;;;;;;;5074452;28;20383;-84
2022/06/30 10:16:16;;;;;;;4.05;2.40;;;;;;;;;;5074851;28;20465;-84
2022/06/30 10:18:42;;;;;;;5.25;2.58;;;;;;;;;;5075048;28;20429;-84
2022/06/30 10:21:08;;;;;;;3.33;2.20;;;;;;;;;;5074576;28;20412;-84
2022/06/30 10:23:34;;;;;;;4.38;2.42;;;;;;;;;;5074703;28;20384;-84
2022/06/30 10:26:02;;;;;;;4.57;2.38;;;;;;;;;;5074605;28;20387;-83
2022/06/30 10:28:29;;;;;;;5.47;2.47;;;;;;;;;;5074549;28;20376;-84
2022/06/30 10:31:17;;;;;;;3.03;2.40;;;;;;;;;;5074545;28;20483;-84
2022/06/30 10:33:43;;;;;;;4.45;2.38;;;;;;;;;;5074687;28;20367;-84
2022/06/30 10:36:21;;;;;;;4.57;2.45;;;;;;;;;;5074456;28;20395;-84
2022/06/30 10:38:52;;;;;;;2.38;2.17;;;;;;;;;;5074461;28;20379;-83
2022/06/30 10:41:18;;;;;;;3.88;2.28;;;;;;;;;;5074412;28;20438;-83
2022/06/30 10:44:03;;;;;;;4.25;2.22;;;;;;;;;;5074393;28;20794;-84
2022/06/30 10:46:29;;;;;;;3.63;2.13;;;;;;;;;;5074223;28;20408;-83
2022/06/30 10:48:55;;;;;;;4.73;2.20;;;;;;;;;;5074409;28;20380;-83
2022/06/30 10:51:21;;;;;;;3.97;2.10;;;;;;;;;;5074121;28;20388;-84
2022/06/30 10:53:49;;;;;;;4.93;2.40;;;;;;;;;;5074050;28;20391;-84
2022/06/30 10:56:15;;;;;;;4.10;2.03;;;;;;;;;;5074158;28;20907;-83
2022/06/30 10:59:00;;;;;;;3.63;2.10;;;;;;;;;;5073931;28;20395;-84
2022/06/30 11:01:26;;;;;;;4.67;2.30;;;;;;;;;;5073392;28;20470;-83
2022/06/30 11:03:52;;;;;;;3.78;2.20;;;;;;;;;;5073919;28;20984;-83
2022/06/30 11:06:18;;;;;;;3.20;2.13;;;;;;;;;;5072726;28;20509;-84
2022/06/30 11:08:47;;;;;;;5.67;2.40;;;;;;;;;;5074121;28;20404;-83
2022/06/30 11:11:25;;;;;;;4.00;2.28;;;;;;;;;;5073753;28;20386;-83
2022/06/30 11:14:11;;;;;;;4.85;2.90;;;;;;;;;;5073676;28;20779;-83
2022/06/30 11:16:38;;;;;;;3.78;2.40;;;;;;;;;;5073554;28;20391;-84
2022/06/30 11:19:05;;;;;;;3.97;2.13;;;;;;;;;;5073810;28;20387;-84
2022/06/30 11:21:31;;;;;;;2.58;2.10;;;;;;;;;;5073401;28;20769;-84
2022/06/30 11:24:01;;;;;;;4.30;2.13;;;;;;;;;;5073490;28;20383;-84
2022/06/30 11:29:14;;;;;;;4.10;2.28;;;;;;;;;;5075940;28;20366;-84
2022/06/30 11:31:41;;;;;;;3.15;1.98;;;;;;;;;;5073200;28;20899;-83
2022/06/30 11:34:11;;;;;;;3.17;2.20;;;;;;;;;;5073314;28;20490;-84
2022/06/30 11:36:38;;;;;;;2.50;2.07;;;;;;;;;;5073235;28;20380;-84
2022/06/30 11:39:08;;;;;;;3.47;2.17;;;;;;;;;;5073228;28;20383;-84
2022/06/30 11:44:21;;;;;;;4.53;2.20;;;;;;;;;;5083847;28;20463;-84
2022/06/30 11:46:53;;;;;;;3.20;2.17;;;;;;;;;;5059127;28;20435;-84
2022/06/30 11:49:20;;;;;;;2.27;2.03;;;;;;;;;;5053158;28;20385;-84
2022/06/30 11:51:46;;;;;;;4.10;2.30;;;;;;;;;;5053066;28;20484;-83
2022/06/30 11:54:13;;;;;;;4.00;2.37;;;;;;;;;;5053005;28;20882;-84
2022/06/30 11:56:55;;;;;;;3.88;2.30;;;;;;;;;;5052946;28;20393;-84
2022/06/30 11:59:21;;;;;;;4.28;1.92;;;;;;;;;;5052726;28;20403;-84
2022/06/30 12:02:07;;;;;;;4.13;1.85;;;;;;;;;;5052858;28;20382;-84
2022/06/30 12:04:38;;;;;;;3.83;2.08;;;;;;;;;;5052783;28;20384;-83
2022/06/30 12:07:04;;;;;;;4.63;2.00;;;;;;;;;;5052787;28;20369;-84
2022/06/30 12:09:31;;;;;;;2.22;1.83;;;;;;;;;;5052681;28;20397;-84
2022/06/30 12:12:00;;;;;;;4.18;2.00;;;;;;;;;;5052633;28;20369;-84
2022/06/30 12:14:27;;;;;;;4.47;1.80;;;;;;;;;;5053769;28;20731;-84
2022/06/30 12:16:57;;;;;;;4.93;1.90;;;;;;;;;;5074842;28;20391;-84
2022/06/30 12:19:23;;;;;;;2.80;1.77;;;;;;;;;;5070941;28;20854;-84
2022/06/30 12:21:54;;;;;;;5.55;1.98;;;;;;;;;;5072160;28;20395;-84
2022/06/30 12:24:21;;;;;;;2.40;1.88;;;;;;;;;;5054267;28;20386;-83
2022/06/30 12:26:54;;;;;;;3.57;1.87;;;;;;;;;;5052609;28;20373;-83
2022/06/30 12:29:21;;;;;;;4.37;1.90;;;;;;;;;;5052241;28;20425;-84
2022/06/30 12:32:06;;;;;;;3.63;2.00;;;;;;;;;;5052332;28;20435;-83
2022/06/30 12:34:33;;;;;;;3.15;1.70;;;;;;;;;;5052264;28;20381;-83
2022/06/30 12:37:03;;;;;;;3.05;2.00;;;;;;;;;;5052362;28;20425;-84
2022/06/30 12:39:32;;;;;;;2.80;2.03;;;;;;;;;;5052104;28;20387;-83
2022/06/30 12:42:02;;;;;;;4.13;2.22;;;;;;;;;;5052115;28;20385;-83
2022/06/30 12:44:29;;;;;;;3.67;2.28;;;;;;;;;;5052212;28;20373;-83
2022/06/30 12:47:02;;;;;;;3.58;2.38;;;;;;;;;;5052133;28;20438;-83
2022/06/30 12:49:28;;;;;;;3.97;2.15;;;;;;;;;;5052030;28;20382;-83
2022/06/30 12:51:54;;;;;;;3.95;2.42;;;;;;;;;;5052036;28;20987;-83
2022/06/30 12:54:23;;;;;;;7.85;2.53;;;;;;;;;;5052094;28;20377;-83
2022/06/30 12:56:52;;;;;;;5.18;2.30;;;;;;;;;;5051956;28;20435;-83
2022/06/30 12:59:20;;;;;;;4.27;2.23;;;;;;;;;;5051461;28;20439;-83
2022/06/30 13:02:06;;;;;;;3.28;2.20;;;;;;;;;;5061838;28;20400;-83
2022/06/30 13:04:33;;;;;;;4.28;2.30;;;;;;;;;;5071682;28;20392;-83
2022/06/30 13:07:00;;;;;;;4.73;2.20;;;;;;;;;;5071558;28;20740;-83
2022/06/30 13:09:27;;;;;;;3.63;1.90;;;;;;;;;;5071917;28;20376;-83
2022/06/30 13:11:58;;;;;;;3.75;2.38;;;;;;;;;;5071935;28;20394;-83
2022/06/30 13:14:25;;;;;;;3.53;2.00;;;;;;;;;;5071886;28;20360;-83
2022/06/30 13:16:52;;;;;;;4.63;2.03;;;;;;;;;;5072071;28;20375;-83
2022/06/30 13:19:18;;;;;;;4.55;2.20;;;;;;;;;;5071737;28;20378;-82
2022/06/30 13:21:47;;;;;;;5.50;2.25;;;;;;;;;;5071639;28;20408;-82
2022/06/30 13:24:13;;;;;;;3.67;2.28;;;;;;;;;;5071695;28;20384;-83
2022/06/30 13:26:40;;;;;;;6.85;2.50;;;;;;;;;;5071906;28;20423;-83
2022/06/30 13:29:06;;;;;;;4.63;2.33;;;;;;;;;;5073201;28;20383;-83
2022/06/30 13:31:33;;;;;;;6.03;2.20;;;;;;;;;;5075587;28;20745;-83
2022/06/30 13:34:00;;;;;;;3.80;1.90;;;;;;;;;;5075698;28;20462;-82
2022/06/30 13:36:30;;;;;;;4.80;2.25;;;;;;;;;;5077948;28;20375;-83
2022/06/30 13:38:56;;;;;;;6.43;2.92;;;;;;;;;;5075699;28;20380;-83
2022/06/30 13:41:22;;;;;;;3.85;2.30;;;;;;;;;;5075394;28;20762;-83
2022/06/30 13:43:48;;;;;;;4.45;2.95;;;;;;;;;;5075395;28;20376;-83
2022/06/30 13:46:14;;;;;;;5.22;2.53;;;;;;;;;;5075417;28;20367;-83
2022/06/30 13:48:40;;;;;;;2.67;2.00;;;;;;;;;;5077777;28;20735;-83
2022/06/30 13:51:06;;;;;;;3.43;2.17;;;;;;;;;;5055251;28;20388;-83
2022/06/30 13:53:32;;;;;;;3.22;2.22;;;;;;;;;;5055246;28;20479;-83
2022/06/30 13:55:58;;;;;;;4.03;2.70;;;;;;;;;;5055446;28;20472;-83
2022/06/30 13:58:24;;;;;;;3.43;1.80;;;;;;;;;;5062334;28;20395;-84
2022/06/30 14:00:51;;;;;;;3.20;1.90;;;;;;;;;;5070942;28;20831;-83
2022/06/30 14:03:18;;;;;;;3.70;2.20;;;;;;;;;;5075207;28;20418;-88
2022/06/30 14:05:44;;;;;;;4.43;1.73;;;;;;;;;;5075192;28;20428;-88
2022/06/30 14:08:11;;;;;;;4.07;1.90;;;;;;;;;;5073621;28;20395;-86
2022/06/30 14:10:37;;;;;;;4.53;1.95;;;;;;;;;;5070582;28;20880;-88
2022/06/30 14:13:03;;;;;;;3.88;1.63;;;;;;;;;;5074964;28;20375;-89
2022/06/30 14:15:29;;;;;;;3.83;1.98;;;;;;;;;;5077264;28;20741;-88
2022/06/30 14:17:55;;;;;;;3.08;1.80;;;;;;;;;;5071550;28;20803;-87
2022/06/30 14:20:22;;;;;;;4.70;1.80;;;;;;;;;;5070835;28;20749;-86
2022/06/30 14:22:48;;;;;;;4.07;2.00;;;;;;;;;;5072345;28;20953;-86
2022/06/30 14:25:14;;;;;;;5.45;3.40;;;;;;;;;;5073852;28;20456;-86
2022/06/30 14:27:40;;;;;;;3.63;2.33;;;;;;;;;;5074592;28;20458;-86
2022/06/30 14:30:07;;;;;;;4.25;1.90;;;;;;;;;;5074584;28;20371;-87
2022/06/30 14:32:34;;;;;;;2.72;1.90;;;;;;;;;;5074511;28;20461;-87
2022/06/30 14:35:01;;;;;;;4.63;1.92;;;;;;;;;;5069149;28;20531;-87
2022/06/30 14:37:27;;;;;;;3.80;1.80;;;;;;;;;;5056971;28;20958;-87
2022/06/30 14:39:53;;;;;;;3.97;1.83;;;;;;;;;;5073910;28;20407;-87
2022/06/30 14:45:04;;;;;;;4.03;2.33;;;;;;;;;;5072802;28;20465;-87
2022/06/30 14:47:30;;;;;;;3.25;1.88;;;;;;;;;;5073623;28;20384;-86
2022/06/30 14:49:56;;;;;;;3.73;2.00;;;;;;;;;;5072785;28;20415;-87
2022/06/30 14:52:22;;;;;;;3.63;1.70;;;;;;;;;;5073538;28;20919;-87
2022/06/30 14:54:48;;;;;;;3.92;2.05;;;;;;;;;;5074016;28;20380;-86
2022/06/30 14:57:14;;;;;;;3.50;1.90;;;;;;;;;;5074032;28;20732;-86
2022/06/30 14:59:41;;;;;;;3.33;1.87;;;;;;;;;;5073956;28;20376;-87